Pagrindinis puslapis
METAR-TAF:

METAR-TAF

Oro uostai :

Tarantas, Italija

platuma: 40-31N, ilguma: 017-24E, Aukštis: 64 m

Dabartinis oras

Ataskaita buvo paskelbta 1 valandą ir 21 minutes, ne 08:50 UTC
Vėjas 2 kt nuo kintamojo kryptimis
Temperatūra 13°C
Drėgmė 100%
Slėgis 1014 hPa
Matomumas: 8000 m
Mažai debesys ne aukštis 500 ft

METAR: LIBG 090850Z VRB02KT 8000 FEW005 13/13 Q1014

Laikas: 11:11 (10:11 UTC)

Prognozė

Ataskaita buvo paskelbta 2 valandos ir 11 minutes, ne 08:00 UTC
Prognozė galioja nuo 09 metu 09 UTC su 09 metu 18 UTC
Vėjas 10 kt iš Pietų
Matomumas 10 km arba daugiau
Išsisklaidę debesys ne aukštis 3000 ft
Laikinai
nuo 09 metu 13 UTC su 09 metu 16 UTC
lietus

TAF: LIBG 090800Z 0909/0918 19010KT 9999 SCT030 TEMPO 0913/0916 RA

Orai ataskaitas ir orų prognozės (METAR, TAF).

turimą stotys yra geltonos ir raudonos taškus žemėlapyje.

Perkelti pele per norėdami pamatyti stoties vardą.

Tada spustelėkite, norėdami matyti oro stebėjimo ir prognozės.

Norėdami pakeisti žemėlapį: spustelėkite ant žalios mygtukų su juodo kryžiaus žemyn,; žalią mygtuką su brūkšneliu, jei norite nutolinti; arba žalių rodyklių gretimoms žemėlapius.


METAR-TAF: